HETCH HETCHY (HTH)

Elevation: 3870' · TUOLUMNE R basin · Operator: Hetch Hetchy Water and Power

Provisional data, subject to change.
Query executed Wednesday at 8:26:18   clock

Select a sensor type for a plot of data.
Note: Reservoir Flows are daily averages.

Earlier

Date RES ELE    STORAGE    RES CHG    OUTFLOW    INFLOW    PPT INC    RAIN    PPTINC4   
 FEET   AF   AF   CFS   CFS   INCHES   INCHES   INCHES  
08/18/2014 -- 312630 -- 432 -- 0.00 21.10 0.00
08/19/2014 -- 311690 -- 460 -- 0.00 21.10 0.00
08/20/2014 -- 310940 -- 462 -- 0.00 21.10 0.00
08/21/2014 -- 310010 -- 484 -- 0.00 21.10 0.00
08/22/2014 -- 309070 -- 471 -- 0.00 21.10 0.00
08/23/2014 -- 308320 -- 423 -- 0.00 21.10 0.00
08/24/2014 -- 307580 -- 374 -- 0.00 21.10 0.00
08/25/2014 -- 307010 -- 382 -- 0.00 21.10 0.00
08/26/2014 -- 306080 -- 454 -- 0.00 21.10 0.00
08/27/2014 -- 305150 -- 466 -- 0.00 21.10 0.00
08/28/2014 -- 304410 -- 466 -- 0.00 21.10 0.00
08/29/2014 -- 303480 -- 473 -- 0.00 21.10 0.00
08/30/2014 -- 302550 -- 460 -- 0.00 21.10 0.00
08/31/2014 -- 301990 -- 363 -- 0.00 21.10 0.00
09/01/2014 -- 301250 -- 387 -- 0.00 21.10 0.00
09/02/2014 -- 300320 -- 460 -- 0.00 21.10 0.00
09/03/2014 -- 299400 -- 486 -- 0.00 21.10 0.00
09/04/2014 -- 298660 -- 450 -- 0.00 21.10 0.00
09/05/2014 -- 297730 -- 467 -- 0.00 21.10 0.00
09/06/2014 -- 296990 -- 399 -- 0.00 21.10 0.00
09/07/2014 -- 296260 -- 330 -- 0.00 21.10 0.00
09/08/2014 -- 295520 -- 448 -- 0.03 21.13 0.00
09/09/2014 -- 294600 -- 466 -- 0.05 21.18 0.15
09/10/2014 -- 293680 -- 464 -- 0.00 21.18 0.00
09/11/2014 -- 292940 -- 451 -- 0.00 21.18 0.00
09/12/2014 -- 292020 -- 468 -- 0.00 21.18 0.00
09/13/2014 -- 291290 -- 414 -- 0.00 21.18 0.00
09/14/2014 -- 290560 -- 352 -- 0.00 21.18 0.00
09/15/2014 -- 289640 -- 418 -- 0.00 21.18 0.00
09/16/2014 -- -- -- -- -- 0.00 21.18 0.00
09/17/2014 -- -- -- -- -- -- -- 0.00

Later | Latest

Warning! This data is preliminary and subject to revision.

Download Data Now Download Data Now | Show HTH Map | Plot HTH Data | 1 Month HTH Data | Real-Time HTH Data | HTH Info